Estación de La Piedad
Ultimos registro cada 15 minutos 62
| N° | Estación | Fecha / Hora | Temperatura | Humedad | Lluvia | Velocidad | Dirección | Radiación | Presion |
| 62 | La Piedad | 08-05-2026 15:30 | 13,1 | 88 | 0 | 1,8 | 337 | 128 | 1021,1 |
| 61 | La Piedad | 08-05-2026 15:15 | 13,5 | 88 | 0 | 1,8 | 339 | 176 | 1021,3 |
| 60 | La Piedad | 08-05-2026 15:00 | 13 | 93 | 0 | 0,9 | 348 | 512 | 1021 |
| 59 | La Piedad | 08-05-2026 14:45 | 12,2 | 94 | 0 | 0 | 337 | 308 | 1021,4 |
| 58 | La Piedad | 08-05-2026 14:30 | 11,8 | 95 | 0 | 0 | 337 | 281 | 1021,3 |
| 57 | La Piedad | 08-05-2026 14:15 | 11,4 | 95 | 0 | 0,4 | 335 | 244 | 1021,4 |
| 56 | La Piedad | 08-05-2026 14:00 | 11,1 | 95 | 0 | 0 | 336 | 167 | 1021,4 |
| 55 | La Piedad | 08-05-2026 13:45 | 10,9 | 95 | 0,2 | 0 | 335 | 190 | 1021,7 |
| 54 | La Piedad | 08-05-2026 13:30 | 10,8 | 94 | 0,6 | 0 | 336 | 148 | 1021,9 |
| 53 | La Piedad | 08-05-2026 13:15 | 10,9 | 94 | 0,4 | 0 | 337 | 114 | 1022,3 |
| 52 | La Piedad | 08-05-2026 13:00 | 11,1 | 94 | 0 | 1,8 | 347 | 151 | 1022 |
| 51 | La Piedad | 08-05-2026 12:45 | 11 | 95 | 0 | 0,4 | 6 | 225 | 1022 |
| 50 | La Piedad | 08-05-2026 12:30 | 10,7 | 95 | 0 | 0 | 43 | 111 | 1022,1 |
| 49 | La Piedad | 08-05-2026 12:15 | 10,6 | 95 | 0 | 0,9 | 69 | 309 | 1022,1 |
| 48 | La Piedad | 08-05-2026 12:00 | 10,3 | 96 | 0 | 0,4 | 42 | 306 | 1021,9 |
| 47 | La Piedad | 08-05-2026 11:45 | 9,9 | 95 | 0 | 0,9 | 291 | 214 | 1022 |
| 46 | La Piedad | 08-05-2026 11:30 | 9,5 | 94 | 0,2 | 0 | 268 | 156 | 1022,4 |
| 45 | La Piedad | 08-05-2026 11:15 | 9,4 | 93 | 0 | 1,3 | 268 | 93 | 1022,8 |
| 44 | La Piedad | 08-05-2026 11:00 | 9,4 | 94 | 0,2 | 0,4 | 268 | 130 | 1022,5 |
| 43 | La Piedad | 08-05-2026 10:45 | 9,4 | 94 | 0 | 0 | 268 | 149 | 1022,9 |
| 42 | La Piedad | 08-05-2026 10:30 | 9,3 | 93 | 0 | 0 | 268 | 123 | 1023 |
| 41 | La Piedad | 08-05-2026 10:15 | 9,3 | 95 | 0 | 0 | 268 | 100 | 1022,8 |
| 40 | La Piedad | 08-05-2026 10:00 | 9,2 | 96 | 0 | 0 | 268 | 118 | 1022,7 |
| 39 | La Piedad | 08-05-2026 09:45 | 8,9 | 96 | 0 | 0 | 262 | 113 | 1022,8 |
| 38 | La Piedad | 08-05-2026 09:30 | 8,6 | 96 | 0 | 0 | 262 | 114 | 1022,5 |
| 37 | La Piedad | 08-05-2026 09:15 | 8,3 | 96 | 0 | 0 | 262 | 107 | 1022,7 |
| 36 | La Piedad | 08-05-2026 09:00 | 8,1 | 96 | 0,4 | 0 | 260 | 65 | 1023 |
| 35 | La Piedad | 08-05-2026 08:45 | 7,9 | 96 | 0,2 | 0,9 | 250 | 33 | 1023 |
| 34 | La Piedad | 08-05-2026 08:30 | 7,9 | 96 | 0 | 0 | 185 | 26 | 1022,5 |
| 33 | La Piedad | 08-05-2026 08:15 | 7,8 | 96 | 0 | 0 | 185 | 19 | 1022,4 |
| 32 | La Piedad | 08-05-2026 08:00 | 7,7 | 96 | 0 | 0,9 | 181 | 18 | 1022,3 |
| 31 | La Piedad | 08-05-2026 07:45 | 7,6 | 96 | 0,2 | 0 | 183 | 5 | 1022,6 |
| 30 | La Piedad | 08-05-2026 07:30 | 7,4 | 96 | 0 | 0 | 183 | 0 | 1022,8 |
| 29 | La Piedad | 08-05-2026 07:15 | 7,4 | 96 | 0,2 | 0 | 183 | 0 | 1022,8 |
| 28 | La Piedad | 08-05-2026 07:00 | 7,3 | 96 | 0 | 0 | 183 | 0 | 1022,8 |
| 27 | La Piedad | 08-05-2026 06:45 | 7,3 | 96 | 0 | 0 | 183 | 0 | 1023 |
| 26 | La Piedad | 08-05-2026 06:30 | 7,2 | 96 | 0 | 0 | 183 | 0 | 1023 |
| 25 | La Piedad | 08-05-2026 06:15 | 7,2 | 96 | 0 | 0 | 183 | 0 | 1022,7 |
| 24 | La Piedad | 08-05-2026 06:00 | 7,2 | 95 | 0 | 0 | 183 | 0 | 1022,8 |
| 23 | La Piedad | 08-05-2026 05:45 | 7,3 | 96 | 0 | 0 | 183 | 0 | 1023 |
| 22 | La Piedad | 08-05-2026 05:30 | 7,2 | 96 | 0 | 0 | 183 | 0 | 1023 |
| 21 | La Piedad | 08-05-2026 05:15 | 7,2 | 96 | 0 | 0 | 183 | 0 | 1023,3 |
| 20 | La Piedad | 08-05-2026 05:00 | 7,1 | 95 | 0 | 0 | 183 | 0 | 1023,3 |
| 19 | La Piedad | 08-05-2026 04:45 | 7 | 95 | 0 | 0 | 183 | 0 | 1023,3 |
| 18 | La Piedad | 08-05-2026 04:30 | 6,9 | 95 | 0 | 0 | 183 | 0 | 1023,2 |
| 17 | La Piedad | 08-05-2026 04:15 | 6,8 | 95 | 0 | 0 | 183 | 0 | 1023,7 |
| 16 | La Piedad | 08-05-2026 04:00 | 6,8 | 95 | 0 | 0 | 183 | 0 | 1023,6 |
| 15 | La Piedad | 08-05-2026 03:45 | 6,8 | 95 | 0 | 0 | 183 | 0 | 1023,6 |
| 14 | La Piedad | 08-05-2026 03:30 | 6,7 | 95 | 0 | 0 | 183 | 0 | 1023,7 |
| 13 | La Piedad | 08-05-2026 03:15 | 6,7 | 95 | 0 | 0 | 183 | 0 | 1023,8 |
| 12 | La Piedad | 08-05-2026 03:00 | 6,8 | 95 | 0 | 0 | 183 | 0 | 1024,1 |
| 11 | La Piedad | 08-05-2026 02:30 | 6,6 | 95 | 0 | 0 | 183 | 0 | 1024,8 |
| 10 | La Piedad | 08-05-2026 02:15 | 6,6 | 95 | 0 | 0 | 183 | 0 | 1024,8 |
| 9 | La Piedad | 08-05-2026 02:00 | 6,4 | 95 | 0 | 0 | 183 | 0 | 1024,8 |
| 8 | La Piedad | 08-05-2026 01:45 | 6,3 | 94 | 0 | 0 | 183 | 0 | 1024,9 |
| 7 | La Piedad | 08-05-2026 01:30 | 6,3 | 95 | 0 | 0 | 183 | 0 | 1025,2 |
| 6 | La Piedad | 08-05-2026 01:15 | 6,3 | 95 | 0 | 0 | 183 | 0 | 1025,2 |
| 5 | La Piedad | 08-05-2026 01:00 | 5,9 | 94 | 0 | 0 | 183 | 0 | 1025,4 |
| 4 | La Piedad | 08-05-2026 00:45 | 5,8 | 94 | 0 | 0 | 183 | 0 | 1025,5 |
| 3 | La Piedad | 08-05-2026 00:30 | 5,8 | 92 | 0 | 0 | 183 | 0 | 1025,7 |
| 2 | La Piedad | 08-05-2026 00:15 | 5,8 | 92 | 0 | 0 | 183 | 0 | 1025,7 |
| 1 | La Piedad | 08-05-2026 00:00 | 5,9 | 91 | 0 | 0 | 183 | 0 | 1025,7 |